Time;durP1;ratioP1;P1;durP2;ratioP2;P2;SDS_P1;SDS_P2;PMS_P1;PMS_P2;Temp;Humidity;BMP_temperature;BMP_pressure;BME280_temperature;BME280_humidity;BME280_pressure;Samples;Min_cycle;Max_cycle;Signal;HPM_P1;HPM_P2
2021/09/09 00:00:53;;;;;;;11.80;9.47;;;17.10;1.00;;;;;;5049003;28;20790;-56
2021/09/09 00:03:20;;;;;;;11.40;10.20;;;17.10;1.00;;;;;;5048666;28;20176;-56
2021/09/09 00:05:45;;;;;;;9.90;8.90;;;17.00;1.00;;;;;;5047927;28;20198;-55
2021/09/09 00:08:11;;;;;;;10.60;9.27;;;17.00;1.00;;;;;;5048929;28;20775;-57
2021/09/09 00:10:37;;;;;;;12.30;10.00;;;17.00;1.00;;;;;;5048386;28;20691;-54
2021/09/09 00:13:04;;;;;;;9.00;8.20;;;16.90;1.00;;;;;;5049022;28;20471;-56
2021/09/09 00:15:29;;;;;;;10.00;9.00;;;16.90;1.00;;;;;;5047375;28;20513;-55
2021/09/09 00:17:56;;;;;;;10.97;9.23;;;16.90;1.00;;;;;;5048296;28;20425;-57
2021/09/09 00:20:22;;;;;;;8.80;7.90;;;16.90;1.00;;;;;;5049038;28;20178;-56
2021/09/09 00:22:47;;;;;;;9.67;8.67;;;17.00;1.00;;;;;;5051622;28;20878;-56
2021/09/09 00:25:13;;;;;;;10.70;9.00;;;16.90;1.00;;;;;;5052248;28;20469;-56
2021/09/09 00:27:39;;;;;;;12.50;9.03;;;16.90;1.00;;;;;;5052595;28;20188;-56
2021/09/09 00:30:06;;;;;;;8.33;7.53;;;16.90;1.00;;;;;;5052296;28;20217;-55
2021/09/09 00:32:31;;;;;;;8.93;8.10;;;16.90;1.00;;;;;;5052041;28;20315;-56
2021/09/09 00:34:57;;;;;;;11.57;8.33;;;16.80;1.00;;;;;;5051688;28;20453;-55
2021/09/09 00:37:22;;;;;;;12.00;8.70;;;16.90;1.00;;;;;;5051968;28;20737;-57
2021/09/09 00:39:48;;;;;;;8.90;7.87;;;16.90;1.00;;;;;;5051984;28;20200;-55
2021/09/09 00:42:14;;;;;;;9.10;8.30;;;;;;;;;;5052356;28;20256;-57
2021/09/09 00:44:39;;;;;;;8.90;8.00;;;16.90;1.00;;;;;;5050475;28;20269;-56
2021/09/09 00:47:08;;;;;;;8.57;7.77;;;16.90;1.00;;;;;;5051575;28;20443;-55
2021/09/09 00:49:36;;;;;;;10.30;7.80;;;16.90;1.00;;;;;;5050301;28;20188;-57
2021/09/09 00:52:02;;;;;;;9.67;7.60;;;17.00;1.00;;;;;;5051298;28;20541;-56
2021/09/09 00:54:28;;;;;;;10.00;8.00;;;16.90;1.00;;;;;;5049372;28;20928;-58
2021/09/09 00:56:56;;;;;;;9.73;7.60;;;16.90;1.00;;;;;;5051706;28;20475;-55
2021/09/09 00:59:21;;;;;;;9.67;7.53;;;17.00;1.00;;;;;;5051476;28;20186;-57
2021/09/09 01:01:47;;;;;;;8.17;7.00;;;16.90;1.00;;;;;;5051564;28;20852;-56
2021/09/09 01:04:14;;;;;;;10.30;7.60;;;16.90;1.00;;;;;;5051578;28;20234;-56
2021/09/09 01:06:40;;;;;;;10.53;7.20;;;16.90;1.00;;;;;;5050625;28;20196;-55
2021/09/09 01:09:06;;;;;;;8.70;7.90;;;17.00;1.00;;;;;;5052011;28;20696;-56
2021/09/09 01:11:31;;;;;;;8.40;7.53;;;17.00;1.00;;;;;;5051270;28;21041;-55
2021/09/09 01:14:11;;;;;;;8.33;6.97;;;17.00;1.00;;;;;;5051358;28;20471;-56
2021/09/09 01:16:38;;;;;;;14.60;8.47;;;17.00;1.00;;;;;;5051036;28;20189;-57
2021/09/09 01:19:05;;;;;;;7.60;6.80;;;17.00;1.00;;;;;;5050307;28;20476;-55
2021/09/09 01:21:31;;;;;;;8.17;7.00;;;16.90;1.00;;;;;;5051403;28;20448;-56
2021/09/09 01:23:58;;;;;;;10.97;8.27;;;16.90;1.00;;;;;;5032797;28;20462;-56
2021/09/09 01:26:25;;;;;;;10.53;7.13;;;17.00;1.00;;;;;;5051389;28;20576;-56
2021/09/09 01:28:51;;;;;;;8.73;7.83;;;17.00;1.00;;;;;;5049480;28;20452;-55
2021/09/09 01:31:17;;;;;;;11.30;7.27;;;17.00;1.00;;;;;;5051119;28;20451;-55
2021/09/09 01:33:43;;;;;;;9.53;6.67;;;17.00;1.00;;;;;;5050212;28;20966;-55
2021/09/09 01:36:08;;;;;;;8.67;7.77;;;16.90;1.00;;;;;;5051099;28;20218;-54
2021/09/09 01:38:34;;;;;;;10.50;7.17;;;16.90;1.00;;;;;;5049911;28;20193;-55
2021/09/09 01:40:59;;;;;;;8.80;7.90;;;16.90;1.00;;;;;;5050756;28;20191;-54
2021/09/09 01:43:25;;;;;;;9.13;7.07;;;16.90;1.00;;;;;;5050832;28;20269;-54
2021/09/09 01:45:51;;;;;;;8.00;7.20;;;16.90;1.00;;;;;;5050511;28;20190;-56
2021/09/09 01:48:16;;;;;;;12.50;7.13;;;16.90;1.00;;;;;;5050273;28;20191;-54
2021/09/09 01:50:42;;;;;;;9.93;6.53;;;16.90;1.00;;;;;;5050635;28;20191;-55
2021/09/09 01:53:07;;;;;;;7.27;6.50;;;16.90;1.00;;;;;;5050417;28;20567;-55
2021/09/09 01:55:33;;;;;;;7.80;7.10;;;16.80;1.00;;;;;;5050212;28;20666;-56
2021/09/09 01:57:59;;;;;;;7.20;6.47;;;16.80;1.00;;;;;;5050360;28;20195;-55
2021/09/09 02:00:24;;;;;;;8.23;7.40;;;16.90;1.00;;;;;;5050113;28;20456;-55
2021/09/09 02:02:50;;;;;;;8.00;7.20;;;16.90;1.00;;;;;;5050734;28;20260;-56
2021/09/09 02:05:15;;;;;;;7.90;6.73;;;16.90;1.00;;;;;;5050318;28;20211;-54
2021/09/09 02:07:41;;;;;;;10.70;6.40;;;16.90;1.00;;;;;;5050139;28;20187;-55
2021/09/09 02:10:08;;;;;;;7.20;6.47;;;16.90;1.00;;;;;;5050242;28;20303;-55
2021/09/09 02:12:34;;;;;;;8.57;6.67;;;16.90;1.00;;;;;;5050433;28;20212;-54
2021/09/09 02:15:00;;;;;;;9.47;6.87;;;16.90;1.00;;;;;;5050210;28;20995;-56
2021/09/09 02:17:26;;;;;;;9.07;7.23;;;16.90;1.00;;;;;;5049934;28;20443;-54
2021/09/09 02:19:52;;;;;;;8.60;6.07;;;16.90;1.00;;;;;;5050728;28;20498;-54
2021/09/09 02:22:17;;;;;;;8.23;7.43;;;16.80;1.00;;;;;;5049944;28;20257;-56
2021/09/09 02:24:45;;;;;;;7.63;6.93;;;16.80;1.00;;;;;;5050275;28;20260;-56
2021/09/09 02:27:20;;;;;;;7.57;6.50;;;16.70;1.00;;;;;;5049841;28;20200;-55
2021/09/09 02:29:45;;;;;;;10.03;6.80;;;16.70;1.00;;;;;;5048509;28;20451;-55
2021/09/09 02:32:11;;;;;;;7.73;6.93;;;16.70;1.00;;;;;;5050352;28;20430;-55
2021/09/09 02:34:36;;;;;;;9.17;7.20;;;16.70;1.00;;;;;;5049796;28;20197;-54
2021/09/09 02:37:02;;;;;;;8.07;7.27;;;16.60;1.00;;;;;;5049400;28;20220;-54
2021/09/09 02:39:28;;;;;;;10.77;9.07;;;16.60;1.00;;;;;;5049925;28;20264;-55
2021/09/09 02:41:53;;;;;;;8.53;7.10;;;16.50;1.00;;;;;;5049755;28;20536;-54
2021/09/09 02:44:19;;;;;;;9.80;7.60;;;16.50;1.00;;;;;;5048946;28;20192;-54
2021/09/09 02:46:44;;;;;;;7.83;6.90;;;16.40;1.00;;;;;;5049858;28;20191;-55
2021/09/09 02:49:10;;;;;;;9.57;8.17;;;16.50;1.00;;;;;;5049048;28;20181;-56
2021/09/09 02:51:35;;;;;;;6.37;5.77;;;16.60;1.00;;;;;;5049485;28;20197;-54
2021/09/09 02:54:01;;;;;;;11.80;7.10;;;16.50;1.00;;;;;;5049431;28;20709;-54
2021/09/09 02:56:26;;;;;;;8.43;7.47;;;16.50;1.00;;;;;;5049191;28;20180;-54
2021/09/09 02:58:52;;;;;;;10.23;7.67;;;16.40;1.00;;;;;;5049685;28;20767;-54
2021/09/09 03:01:18;;;;;;;7.70;6.87;;;16.40;1.00;;;;;;5048861;28;20532;-55
2021/09/09 03:03:44;;;;;;;9.37;7.63;;;16.40;1.00;;;;;;5049499;28;20443;-54
2021/09/09 03:06:09;;;;;;;8.47;6.27;;;16.30;1.00;;;;;;5049354;28;20194;-54
2021/09/09 03:08:35;;;;;;;8.23;7.37;;;16.30;1.00;;;;;;5049241;28;20206;-54
2021/09/09 03:11:01;;;;;;;7.63;6.93;;;16.30;1.00;;;;;;5049235;28;20580;-54
2021/09/09 03:13:27;;;;;;;8.90;7.20;;;16.30;1.00;;;;;;5049380;28;20476;-56
2021/09/09 03:15:53;;;;;;;8.67;7.80;;;16.20;1.00;;;;;;5052052;28;20195;-55
2021/09/09 03:18:18;;;;;;;7.80;7.10;;;16.20;1.00;;;;;;5049079;28;20430;-55
2021/09/09 03:20:44;;;;;;;8.13;7.30;;;16.30;1.00;;;;;;5055516;28;20184;-53
2021/09/09 03:23:10;;;;;;;8.30;7.50;;;16.20;1.00;;;;;;5048124;28;20220;-56
2021/09/09 03:25:35;;;;;;;9.03;7.97;;;16.10;1.00;;;;;;5049327;28;20555;-56
2021/09/09 03:28:01;;;;;;;8.03;7.23;;;16.20;1.00;;;;;;5049202;28;20193;-55
2021/09/09 03:30:27;;;;;;;8.63;7.73;;;16.20;1.00;;;;;;5049305;28;20198;-54
2021/09/09 03:32:52;;;;;;;10.00;7.50;;;16.20;1.00;;;;;;5048673;28;20213;-56
2021/09/09 03:35:18;;;;;;;10.60;8.03;;;16.20;1.00;;;;;;5047361;28;20659;-55
2021/09/09 03:37:43;;;;;;;8.07;7.27;;;16.20;1.00;;;;;;5049144;28;20244;-56
2021/09/09 03:40:10;;;;;;;8.70;7.70;;;16.10;1.00;;;;;;5049478;28;20214;-56
2021/09/09 03:42:36;;;;;;;8.40;7.60;;;16.10;1.00;;;;;;5048901;28;20185;-54
2021/09/09 03:45:02;;;;;;;7.50;6.80;;;16.10;1.00;;;;;;5047430;28;20515;-55
2021/09/09 03:47:28;;;;;;;8.10;7.30;;;16.00;1.00;;;;;;5048521;28;20225;-56
2021/09/09 03:49:53;;;;;;;8.50;7.70;;;16.00;1.00;;;;;;5048359;28;20538;-55
2021/09/09 03:52:19;;;;;;;8.03;7.07;;;16.00;1.00;;;;;;5048767;28;20277;-56
2021/09/09 03:54:45;;;;;;;11.03;6.90;;;16.00;1.00;;;;;;5048700;28;20242;-55
2021/09/09 03:57:10;;;;;;;7.70;6.90;;;16.00;1.00;;;;;;5050147;28;20602;-54
2021/09/09 03:59:36;;;;;;;9.17;7.10;;;16.00;1.00;;;;;;5052641;28;20271;-54
2021/09/09 04:02:03;;;;;;;9.37;7.23;;;16.00;1.00;;;;;;5051017;28;20202;-55
2021/09/09 04:04:32;;;;;;;7.67;6.83;;;15.90;1.00;;;;;;5052486;28;20692;-55
2021/09/09 04:06:58;;;;;;;7.33;6.63;;;15.90;1.00;;;;;;5052900;28;20786;-58
2021/09/09 04:09:23;;;;;;;8.43;7.50;;;15.90;1.00;;;;;;5052547;28;20445;-57
2021/09/09 04:11:49;;;;;;;7.60;6.63;;;16.00;1.00;;;;;;5051723;28;20458;-57
2021/09/09 04:14:15;;;;;;;7.87;7.07;;;16.00;1.00;;;;;;5052250;28;20340;-58
2021/09/09 04:16:41;;;;;;;8.30;6.60;;;15.90;1.00;;;;;;5052574;28;20188;-57
2021/09/09 04:19:06;;;;;;;8.73;6.93;;;16.00;1.00;;;;;;5052192;28;20185;-57
2021/09/09 04:21:32;;;;;;;9.93;6.90;;;16.00;1.00;;;;;;5052433;28;20184;-58
2021/09/09 04:23:58;;;;;;;6.70;6.03;;;15.90;1.00;;;;;;5051939;28;20188;-56
2021/09/09 04:26:24;;;;;;;7.27;6.57;;;16.00;1.00;;;;;;5051790;28;20439;-57
2021/09/09 04:28:49;;;;;;;8.00;6.70;;;16.10;1.00;;;;;;5052559;28;20455;-57
2021/09/09 04:31:15;;;;;;;6.87;6.17;;;16.10;1.00;;;;;;5051697;28;20253;-57
2021/09/09 04:33:41;;;;;;;13.83;6.67;;;16.20;1.00;;;;;;5051413;28;20292;-56
2021/09/09 04:36:07;;;;;;;8.93;7.10;;;16.30;1.00;;;;;;5051910;28;20734;-56
2021/09/09 04:38:32;;;;;;;12.50;6.30;;;16.40;1.00;;;;;;5051417;28;20526;-57
2021/09/09 04:40:58;;;;;;;14.03;6.80;;;16.50;1.00;;;;;;5052050;28;20200;-58
2021/09/09 04:43:23;;;;;;;6.57;5.90;;;16.60;1.00;;;;;;5052345;28;20209;-57
2021/09/09 04:45:49;;;;;;;7.93;6.10;;;16.60;1.00;;;;;;5054002;28;20181;-56
2021/09/09 04:48:15;;;;;;;7.27;6.13;;;16.70;1.00;;;;;;5061004;28;20194;-55
2021/09/09 04:50:40;;;;;;;8.70;7.00;;;16.80;1.00;;;;;;5050125;28;20270;-56
2021/09/09 04:53:06;;;;;;;7.83;6.10;;;16.80;1.00;;;;;;5056549;28;20216;-55
2021/09/09 04:55:31;;;;;;;7.73;5.90;;;16.80;1.00;;;;;;5065441;28;20259;-56
2021/09/09 04:57:57;;;;;;;9.03;6.30;;;16.70;1.00;;;;;;5052549;28;20712;-56
2021/09/09 05:00:22;;;;;;;7.53;6.73;;;16.70;1.00;;;;;;5050809;28;20190;-56
2021/09/09 05:02:48;;;;;;;6.43;5.80;;;16.60;1.00;;;;;;5050937;28;20191;-56
2021/09/09 05:05:13;;;;;;;7.07;6.33;;;16.60;1.00;;;;;;5050577;28;20197;-55
2021/09/09 05:07:40;;;;;;;7.00;6.30;;;16.50;1.00;;;;;;5047822;28;20185;-56
2021/09/09 05:10:06;;;;;;;7.83;7.03;;;16.50;1.00;;;;;;5050886;28;20182;-56
2021/09/09 05:12:31;;;;;;;11.30;6.87;;;16.50;1.00;;;;;;5050986;28;20521;-56
2021/09/09 05:14:57;;;;;;;10.80;6.63;;;16.50;1.00;;;;;;5050316;28;20836;-55
2021/09/09 05:17:23;;;;;;;7.23;6.07;;;16.60;1.00;;;;;;5050856;28;20200;-55
2021/09/09 05:19:48;;;;;;;7.93;6.00;;;16.70;1.00;;;;;;5068246;28;20228;-57
2021/09/09 05:22:14;;;;;;;6.33;5.70;;;16.70;1.00;;;;;;5051457;28;20670;-56
2021/09/09 05:24:39;;;;;;;11.50;5.43;;;16.80;1.00;;;;;;5049622;28;20195;-56
2021/09/09 05:27:05;;;;;;;7.83;6.90;;;16.80;1.00;;;;;;5051092;28;20185;-57
2021/09/09 05:29:30;;;;;;;6.50;5.90;;;16.90;1.00;;;;;;5050267;28;20190;-56
2021/09/09 05:31:56;;;;;;;7.27;5.77;;;17.10;1.00;;;;;;5050771;28;20280;-58
2021/09/09 05:34:21;;;;;;;7.20;5.33;;;17.30;1.00;;;;;;5050688;28;20209;-58
2021/09/09 05:36:47;;;;;;;7.60;5.40;;;17.30;1.00;;;;;;5050449;28;20260;-58
2021/09/09 05:39:12;;;;;;;6.53;5.27;;;17.50;1.00;;;;;;5050358;28;20186;-56
2021/09/09 05:41:38;;;;;;;6.47;5.37;;;17.60;1.00;;;;;;5050339;28;20187;-56
2021/09/09 05:44:04;;;;;;;7.00;5.13;;;17.60;1.00;;;;;;5050540;28;20202;-57
2021/09/09 05:46:29;;;;;;;6.43;5.33;;;17.80;1.00;;;;;;5059640;28;20190;-56
2021/09/09 05:48:55;;;;;;;7.83;6.00;;;17.90;1.00;;;;;;5064304;28;20186;-57
2021/09/09 05:51:21;;;;;;;9.40;5.33;;;17.90;1.00;;;;;;5050625;28;20189;-57
2021/09/09 05:53:46;;;;;;;7.83;5.37;;;18.00;1.00;;;;;;5049462;28;20684;-57
2021/09/09 05:56:12;;;;;;;5.67;5.17;;;18.10;1.00;;;;;;5049780;28;20252;-56
2021/09/09 05:58:38;;;;;;;7.43;5.63;;;18.10;1.00;;;;;;5050247;28;20584;-55
2021/09/09 06:01:05;;;;;;;7.40;5.23;;;20.60;1.00;;;;;;5049399;28;20252;-57
2021/09/09 06:03:31;;;;;;;5.90;4.97;;;18.20;1.00;;;;;;5049005;28;20795;-56
2021/09/09 06:06:04;;;;;;;8.43;5.73;;;18.40;1.00;;;;;;5050212;28;20452;-57
2021/09/09 06:08:31;;;;;;;8.83;5.23;;;18.40;1.00;;;;;;5049446;28;20953;-55
2021/09/09 06:10:57;;;;;;;7.60;5.70;;;18.50;1.00;;;;;;5049807;28;20717;-58
2021/09/09 06:13:22;;;;;;;5.57;5.03;;;18.50;1.00;;;;;;5049315;28;21036;-56
2021/09/09 06:15:48;;;;;;;7.60;5.70;;;18.60;1.00;;;;;;5049911;28;20194;-55
2021/09/09 06:18:14;;;;;;;7.60;5.73;;;18.70;1.00;;;;;;5049427;28;20230;-57
2021/09/09 06:20:39;;;;;;;8.60;5.70;;;18.80;1.00;;;;;;5049376;28;20187;-57
2021/09/09 06:23:05;;;;;;;8.13;6.00;;;18.80;1.00;;;;;;5049518;28;20190;-57
2021/09/09 06:25:30;;;;;;;8.80;5.97;;;18.90;1.00;;;;;;5050859;28;20192;-57
2021/09/09 06:27:56;;;;;;;7.10;5.17;;;18.90;1.00;;;;;;5050087;28;20187;-56
2021/09/09 06:30:22;;;;;;;8.33;5.20;;;18.90;1.00;;;;;;5049767;28;20199;-55
2021/09/09 06:32:47;;;;;;;7.10;4.93;;;19.10;1.00;;;;;;5048904;28;20200;-56
2021/09/09 06:35:13;;;;;;;5.77;5.07;;;19.10;1.00;;;;;;5049650;28;20271;-55
2021/09/09 06:37:39;;;;;;;8.47;5.53;;;19.20;1.00;;;;;;5048762;28;20276;-58
2021/09/09 06:40:06;;;;;;;6.57;5.13;;;19.30;1.00;;;;;;5049285;28;20187;-56
2021/09/09 06:42:31;;;;;;;8.03;6.67;;;19.40;1.00;;;;;;5064930;28;20833;-56
2021/09/09 06:44:57;;;;;;;6.93;5.03;;;19.40;1.00;;;;;;5049790;28;20432;-56
2021/09/09 06:47:22;;;;;;;8.30;5.57;;;19.50;1.00;;;;;;5048334;28;20655;-56
2021/09/09 06:49:48;;;;;;;7.07;5.40;;;19.60;1.00;;;;;;5048942;28;20281;-57
2021/09/09 06:52:15;;;;;;;9.33;6.07;;;19.60;1.00;;;;;;5050643;28;20491;-58
2021/09/09 06:54:42;;;;;;;6.47;5.47;;;19.70;1.00;;;;;;5049542;28;20190;-57
2021/09/09 06:57:07;;;;;;;5.57;4.90;;;19.80;1.00;;;;;;5049438;28;20427;-57
2021/09/09 06:59:33;;;;;;;6.00;5.30;;;20.00;1.00;;;;;;5049538;28;20526;-56
2021/09/09 07:01:58;;;;;;;6.50;5.10;;;20.10;1.00;;;;;;5048488;28;20224;-57
2021/09/09 07:04:24;;;;;;;11.17;5.90;;;20.40;1.00;;;;;;5049268;28;20192;-57
2021/09/09 07:06:49;;;;;;;10.73;5.63;;;20.40;1.00;;;;;;5049263;28;20230;-56
2021/09/09 07:09:15;;;;;;;5.60;5.00;;;20.40;1.00;;;;;;5049173;28;20197;-58
2021/09/09 07:11:41;;;;;;;9.90;5.30;;;;;;;;;;5049313;28;20191;-55
2021/09/09 07:14:06;;;;;;;6.90;5.80;;;20.30;1.00;;;;;;5054824;28;20223;-56
2021/09/09 07:16:32;;;;;;;7.00;5.17;;;20.40;1.00;;;;;;5057995;28;20449;-56
2021/09/09 07:18:57;;;;;;;7.20;4.97;;;20.50;1.00;;;;;;5055166;28;20633;-56
2021/09/09 07:21:23;;;;;;;7.83;5.77;;;20.50;1.00;;;;;;5049173;28;20201;-57
2021/09/09 07:23:49;;;;;;;6.13;5.03;;;20.50;1.00;;;;;;5049615;28;20206;-57
2021/09/09 07:26:15;;;;;;;6.27;4.83;;;20.70;1.00;;;;;;5049440;28;20190;-57
2021/09/09 07:28:41;;;;;;;6.03;4.77;;;20.80;1.00;;;;;;5062157;28;20442;-55
2021/09/09 07:31:06;;;;;;;7.87;5.23;;;21.30;1.00;;;;;;5050819;28;20418;-57
2021/09/09 07:33:32;;;;;;;8.37;4.97;;;21.30;1.00;;;;;;5053076;28;20211;-57
2021/09/09 07:35:58;;;;;;;8.80;4.77;;;21.50;1.00;;;;;;5053413;28;20228;-56
2021/09/09 07:38:23;;;;;;;8.13;5.10;;;21.50;1.00;;;;;;5053176;28;20277;-59
2021/09/09 07:40:49;;;;;;;8.17;5.53;;;21.60;1.00;;;;;;5052826;28;20642;-58
2021/09/09 07:43:14;;;;;;;6.73;5.30;;;21.60;1.00;;;;;;5053241;28;20203;-57
2021/09/09 07:45:40;;;;;;;5.77;5.27;;;21.60;1.00;;;;;;5053660;28;20322;-57
2021/09/09 07:48:06;;;;;;;7.03;4.93;;;21.70;1.00;;;;;;5053187;28;20199;-56
2021/09/09 07:50:32;;;;;;;9.10;5.63;;;21.70;1.00;;;;;;5053277;28;22020;-58
2021/09/09 07:52:58;;;;;;;10.57;5.57;;;21.70;1.00;;;;;;5051548;28;20495;-57
2021/09/09 07:55:24;;;;;;;8.90;5.47;;;21.70;1.00;;;;;;5053389;28;20189;-56
2021/09/09 07:57:49;;;;;;;7.33;5.43;;;21.70;1.00;;;;;;5053289;28;21043;-56
2021/09/09 08:00:15;;;;;;;5.47;4.43;;;21.80;1.00;;;;;;5053178;28;20438;-55
2021/09/09 08:02:41;;;;;;;7.70;4.90;;;22.00;1.00;;;;;;5053635;28;20195;-57
2021/09/09 08:05:07;;;;;;;10.13;5.50;;;22.10;1.00;;;;;;5052605;28;20868;-57
2021/09/09 08:07:44;;;;;;;9.03;5.43;;;22.20;1.00;;;;;;5051428;28;20201;-59
2021/09/09 08:10:10;;;;;;;5.20;4.70;;;22.30;1.00;;;;;;5053241;28;20734;-57
2021/09/09 08:12:36;;;;;;;7.43;5.10;;;22.30;1.00;;;;;;5051024;28;20449;-57
2021/09/09 08:15:03;;;;;;;5.77;5.17;;;22.30;1.00;;;;;;5058848;28;20978;-56
2021/09/09 08:17:28;;;;;;;9.17;6.57;;;22.30;1.00;;;;;;5052640;28;20485;-59
2021/09/09 08:19:54;;;;;;;7.90;5.20;;;22.40;1.00;;;;;;5061421;28;20854;-58
2021/09/09 08:22:19;;;;;;;6.63;5.60;;;22.60;1.00;;;;;;5067574;28;20250;-57
2021/09/09 08:24:45;;;;;;;8.10;5.87;;;22.70;1.00;;;;;;5054866;28;20259;-57
2021/09/09 08:27:10;;;;;;;5.93;5.43;;;22.90;1.00;;;;;;5052861;28;20217;-57
2021/09/09 08:29:36;;;;;;;7.37;5.93;;;22.90;1.00;;;;;;5052744;28;20665;-57
2021/09/09 08:32:01;;;;;;;6.10;5.10;;;22.90;1.00;;;;;;5068863;28;20206;-57
2021/09/09 08:34:28;;;;;;;6.60;4.40;;;22.80;1.00;;;;;;5063302;28;20212;-57
2021/09/09 08:36:53;;;;;;;6.00;5.40;;;22.70;1.00;;;;;;5069497;28;20219;-58
2021/09/09 08:39:19;;;;;;;4.93;4.50;;;23.60;1.00;;;;;;5072790;28;20412;-56
2021/09/09 08:41:44;;;;;;;8.83;5.70;;;22.80;1.00;;;;;;5059867;28;20184;-58
2021/09/09 08:44:11;;;;;;;6.73;5.70;;;23.00;1.00;;;;;;5052336;28;20217;-57
2021/09/09 08:46:37;;;;;;;6.10;5.17;;;23.10;1.00;;;;;;5070431;28;20188;-58
2021/09/09 08:49:02;;;;;;;5.10;4.70;;;23.20;1.00;;;;;;5051680;28;20450;-58
2021/09/09 08:51:28;;;;;;;6.30;5.37;;;23.40;1.00;;;;;;5061734;28;20192;-56
2021/09/09 08:53:56;;;;;;;6.80;5.50;;;23.50;1.00;;;;;;5051900;28;20485;-57
2021/09/09 08:56:22;;;;;;;6.70;5.10;;;23.60;1.00;;;;;;5052329;28;20186;-57
2021/09/09 08:58:48;;;;;;;7.73;5.77;;;23.90;1.00;;;;;;5052337;28;20446;-56
2021/09/09 09:01:17;;;;;;;6.53;5.23;;;24.10;1.00;;;;;;5051050;28;20447;-57
2021/09/09 09:04:04;;;;;;;5.47;4.97;;;24.30;1.00;;;;;;5051636;28;20215;-57
2021/09/09 09:06:32;;;;;;;6.47;4.93;;;24.30;1.00;;;;;;5051068;28;20425;-56
2021/09/09 09:09:08;;;;;;;5.83;5.20;;;24.30;1.00;;;;;;5051383;28;20468;-57
2021/09/09 09:11:45;;;;;;;6.90;5.10;;;24.30;1.00;;;;;;5051868;28;20467;-58
2021/09/09 09:14:13;;;;;;;8.73;5.73;;;24.20;1.00;;;;;;5051233;28;20497;-57
2021/09/09 09:16:44;;;;;;;10.93;5.60;;;24.30;1.00;;;;;;5051886;28;20421;-56
2021/09/09 09:19:12;;;;;;;6.20;5.00;;;24.30;1.00;;;;;;5051385;28;20823;-58
2021/09/09 09:21:42;;;;;;;6.27;5.70;;;24.50;1.00;;;;;;5051125;28;20525;-57
2021/09/09 09:24:08;;;;;;;7.17;6.00;;;24.60;1.00;;;;;;5051138;28;20475;-57
2021/09/09 09:26:34;;;;;;;6.40;4.80;;;24.70;1.00;;;;;;5050771;28;20447;-57
2021/09/09 09:29:00;;;;;;;5.70;4.80;;;24.60;1.00;;;;;;5051861;28;20775;-57
2021/09/09 09:31:31;;;;;;;9.00;5.73;;;24.60;1.00;;;;;;5033120;28;20199;-57
2021/09/09 09:34:02;;;;;;;6.73;5.20;;;24.60;1.00;;;;;;5051300;28;20727;-58
2021/09/09 09:36:40;;;;;;;6.67;4.90;;;24.80;1.00;;;;;;5050939;28;20495;-57
2021/09/09 09:39:19;;;;;;;7.57;6.37;;;25.00;1.00;;;;;;5051253;28;20457;-57
2021/09/09 09:42:02;;;;;;;6.67;5.23;;;25.10;1.00;;;;;;5051098;28;20460;-57
2021/09/09 09:44:29;;;;;;;8.70;5.60;;;25.30;1.00;;;;;;5050565;28;20779;-58
2021/09/09 09:47:10;;;;;;;7.87;4.97;;;25.20;1.00;;;;;;5049297;28;20421;-56
2021/09/09 09:49:37;;;;;;;9.10;5.57;;;25.30;1.00;;;;;;5049643;28;20435;-56
2021/09/09 09:52:04;;;;;;;6.50;5.37;;;25.30;1.00;;;;;;5050929;28;20922;-58
2021/09/09 09:54:30;;;;;;;6.87;5.53;;;25.50;1.00;;;;;;5048777;28;21039;-58
2021/09/09 09:56:56;;;;;;;5.83;5.20;;;25.60;1.00;;;;;;5050971;28;20467;-57
2021/09/09 09:59:23;;;;;;;8.90;5.73;;;25.70;1.00;;;;;;5050866;28;20439;-57
2021/09/09 10:01:49;;;;;;;7.40;5.50;;;25.80;1.00;;;;;;5050011;28;20443;-58
2021/09/09 10:04:16;;;;;;;7.90;5.60;;;25.70;1.00;;;;;;5050314;28;20422;-59
2021/09/09 10:06:44;;;;;;;6.20;5.20;;;25.90;1.00;;;;;;5048821;28;20432;-57
2021/09/09 10:09:10;;;;;;;6.90;6.23;;;25.90;1.00;;;;;;5050768;28;21366;-57
2021/09/09 10:11:36;;;;;;;8.13;5.87;;;26.00;1.00;;;;;;5051145;28;20419;-56
2021/09/09 10:14:04;;;;;;;6.93;5.80;;;26.20;1.00;;;;;;5069310;28;20465;-58
2021/09/09 10:16:34;;;;;;;6.43;5.70;;;26.30;1.00;;;;;;5070511;28;20183;-56
2021/09/09 10:19:00;;;;;;;7.10;6.40;;;26.30;1.00;;;;;;5069090;28;20447;-58
2021/09/09 10:21:47;;;;;;;10.13;5.93;;;26.40;1.00;;;;;;5059162;28;20802;-57
2021/09/09 10:24:28;;;;;;;8.20;5.50;;;26.40;1.00;;;;;;5050628;28;20646;-57
2021/09/09 10:27:14;;;;;;;8.27;6.00;;;26.30;1.00;;;;;;5050447;28;20454;-56
2021/09/09 10:29:53;;;;;;;6.23;5.57;;;26.20;1.00;;;;;;5050482;28;20413;-58
2021/09/09 10:32:34;;;;;;;5.80;5.30;;;26.20;1.00;;;;;;5050281;28;20421;-58
2021/09/09 10:35:19;;;;;;;7.53;5.47;;;26.30;1.00;;;;;;5050169;28;20836;-58
2021/09/09 10:38:07;;;;;;;8.50;6.17;;;26.30;1.00;;;;;;5049484;28;20416;-57
2021/09/09 10:40:35;;;;;;;6.63;6.03;;;26.40;1.00;;;;;;5049529;28;20425;-57
2021/09/09 10:43:03;;;;;;;9.73;6.00;;;26.50;1.00;;;;;;5050087;28;20501;-57
2021/09/09 10:45:35;;;;;;;8.90;5.83;;;26.60;1.00;;;;;;5050343;28;20414;-57
2021/09/09 10:48:06;;;;;;;6.80;6.10;;;26.80;1.00;;;;;;5049468;28;20425;-58
2021/09/09 10:50:33;;;;;;;11.57;5.40;;;26.80;1.00;;;;;;5049935;28;20460;-58
2021/09/09 10:53:09;;;;;;;6.27;5.67;;;26.90;1.00;;;;;;5049496;28;20826;-57
2021/09/09 10:55:37;;;;;;;9.17;5.90;;;27.00;1.00;;;;;;5050103;28;20435;-56
2021/09/09 10:58:15;;;;;;;7.27;5.50;;;27.00;1.00;;;;;;5050101;28;20442;-57
2021/09/09 11:01:02;;;;;;;5.63;5.13;;;26.90;1.00;;;;;;5049796;28;20454;-57
2021/09/09 11:03:47;;;;;;;6.13;5.53;;;27.00;1.00;;;;;;5049041;28;20492;-57
2021/09/09 11:06:16;;;;;;;7.10;5.73;;;27.20;1.00;;;;;;5048456;28;20440;-58
2021/09/09 11:08:45;;;;;;;7.17;6.47;;;27.30;1.00;;;;;;5049973;28;20415;-57
2021/09/09 11:11:25;;;;;;;6.53;5.73;;;27.30;1.00;;;;;;5049838;28;20452;-57
2021/09/09 11:14:01;;;;;;;7.63;5.60;;;27.30;1.00;;;;;;5047691;28;20460;-57
2021/09/09 11:16:37;;;;;;;7.07;5.93;;;27.40;1.00;;;;;;5050315;28;20407;-58
2021/09/09 11:19:05;;;;;;;5.83;5.13;;;27.50;1.00;;;;;;5049532;28;20450;-59
2021/09/09 11:21:35;;;;;;;9.23;6.13;;;27.50;1.00;;;;;;5049548;28;20445;-57
2021/09/09 11:24:12;;;;;;;8.67;6.00;;;27.40;1.00;;;;;;5049601;28;21024;-57
2021/09/09 11:26:40;;;;;;;5.80;5.30;;;27.50;1.00;;;;;;5049817;28;20497;-58
2021/09/09 11:29:06;;;;;;;8.77;5.97;;;27.60;1.00;;;;;;5049515;28;20437;-57
2021/09/09 11:31:33;;;;;;;5.97;5.47;;;27.80;1.00;;;;;;5049160;28;20827;-58
2021/09/09 11:34:04;;;;;;;5.90;5.40;;;27.80;1.00;;;;;;5047320;28;20480;-58
2021/09/09 11:36:31;;;;;;;8.97;5.33;;;27.50;1.00;;;;;;5047005;28;20500;-57
2021/09/09 11:38:59;;;;;;;5.50;5.00;;;27.50;1.00;;;;;;5049366;28;20448;-58
2021/09/09 11:41:28;;;;;;;6.20;5.50;;;27.40;1.00;;;;;;5050023;28;20441;-57
2021/09/09 11:44:03;;;;;;;6.80;5.60;;;27.40;1.00;;;;;;5049512;28;20792;-57
2021/09/09 11:46:35;;;;;;;5.97;5.40;;;27.30;1.00;;;;;;5049319;28;20449;-57
2021/09/09 11:49:10;;;;;;;6.13;4.90;;;27.30;1.00;;;;;;5049520;28;20942;-58
2021/09/09 11:51:40;;;;;;;7.17;5.73;;;27.40;1.00;;;;;;5049311;28;20420;-57
2021/09/09 11:54:15;;;;;;;13.57;5.30;;;27.50;1.00;;;;;;5047944;28;20446;-60
2021/09/09 11:56:41;;;;;;;7.70;5.40;;;27.60;1.00;;;;;;5049135;28;20896;-58
2021/09/09 11:59:17;;;;;;;9.03;5.37;;;27.60;1.00;;;;;;5049135;28;20414;-57
2021/09/09 12:01:44;;;;;;;8.10;5.20;;;27.40;1.00;;;;;;5047366;28;20197;-57
2021/09/09 12:04:11;;;;;;;6.20;5.60;;;27.40;1.00;;;;;;5069371;28;20422;-60
2021/09/09 12:06:38;;;;;;;6.00;4.90;;;27.50;1.00;;;;;;5069520;28;20783;-59
2021/09/09 12:09:04;;;;;;;5.43;4.93;;;27.60;1.00;;;;;;5069436;28;20441;-56
2021/09/09 12:11:30;;;;;;;6.20;5.30;;;27.80;1.00;;;;;;5069293;28;20424;-57
2021/09/09 12:13:56;;;;;;;5.80;5.20;;;27.70;1.00;;;;;;5069509;28;20260;-57
2021/09/09 12:16:33;;;;;;;8.33;5.00;;;27.70;1.00;;;;;;5069294;28;20496;-57
2021/09/09 12:19:10;;;;;;;6.00;5.50;;;27.60;1.00;;;;;;5071134;28;20549;-58
2021/09/09 12:21:36;;;;;;;6.23;5.73;;;27.60;1.00;;;;;;5072753;28;20781;-58
2021/09/09 12:24:10;;;;;;;10.13;6.07;;;27.70;1.00;;;;;;5053839;28;20423;-57
2021/09/09 12:26:37;;;;;;;6.60;5.90;;;27.70;1.00;;;;;;5052867;28;20875;-57
2021/09/09 12:29:13;;;;;;;5.90;5.33;;;27.80;1.00;;;;;;5052693;28;20547;-58
2021/09/09 12:31:39;;;;;;;7.90;6.00;;;27.80;1.00;;;;;;5052554;28;20480;-57
2021/09/09 12:34:13;;;;;;;6.50;5.87;;;27.80;1.00;;;;;;5051375;28;20977;-57
2021/09/09 12:36:44;;;;;;;6.67;5.33;;;27.50;1.00;;;;;;5052826;28;20225;-58
2021/09/09 12:39:10;;;;;;;7.70;5.53;;;27.60;1.00;;;;;;5064359;28;20472;-58
2021/09/09 12:41:36;;;;;;;6.53;5.90;;;27.70;1.00;;;;;;5072430;28;20420;-57
2021/09/09 12:44:04;;;;;;;10.40;5.47;;;27.70;1.00;;;;;;5070721;28;20415;-56
2021/09/09 12:46:34;;;;;;;8.90;5.70;;;27.80;1.00;;;;;;5052587;28;20251;-57
2021/09/09 12:49:06;;;;;;;7.30;6.10;;;27.90;1.00;;;;;;5052523;28;20415;-57
2021/09/09 12:51:34;;;;;;;8.00;6.30;;;27.90;1.00;;;;;;5052342;28;20415;-58
2021/09/09 12:54:00;;;;;;;6.97;5.70;;;28.00;1.00;;;;;;5052246;28;20459;-57
2021/09/09 12:56:25;;;;;;;5.87;5.20;;;28.10;1.00;;;;;;5052079;28;20849;-58